Time;durP1;ratioP1;P1;durP2;ratioP2;P2;SDS_P1;SDS_P2;PMS_P1;PMS_P2;Temp;Humidity;BMP_temperature;BMP_pressure;BME280_temperature;BME280_humidity;BME280_pressure;Samples;Min_cycle;Max_cycle;Signal;HPM_P1;HPM_P2
2023/09/10 00:01:21;;;;;;;7.90;4.85;;;21.20;99.90;;;21.70;100.00;101099.41;5216675;28;20095;-58
2023/09/10 00:03:53;;;;;;;8.23;4.30;;;21.10;99.90;;;21.68;100.00;101102.06;5204778;28;20144;-54
2023/09/10 00:06:26;;;;;;;6.38;4.72;;;21.10;99.90;;;21.66;100.00;101100.31;5203156;28;20092;-54
2023/09/10 00:08:59;;;;;;;7.63;4.63;;;21.10;99.90;;;21.63;100.00;101098.56;5192881;28;20488;-54
2023/09/10 00:11:32;;;;;;;6.88;4.47;;;21.10;99.90;;;21.64;100.00;101102.97;5203430;28;20091;-55
2023/09/10 00:14:04;;;;;;;6.82;4.43;;;21.10;99.90;;;21.65;100.00;101101.22;5200203;28;20061;-54
2023/09/10 00:16:37;;;;;;;8.43;4.45;;;21.10;99.90;;;21.66;100.00;101097.69;5220890;28;20053;-54
2023/09/10 00:19:11;;;;;;;7.45;4.90;;;21.10;99.90;;;21.63;100.00;101109.16;5200803;28;20050;-54
2023/09/10 00:21:44;;;;;;;7.03;4.50;;;21.10;99.90;;;21.62;100.00;101101.22;5200372;28;20053;-55
2023/09/10 00:24:17;;;;;;;11.10;5.40;;;21.10;99.90;;;21.57;100.00;101108.31;5217887;28;20057;-56
2023/09/10 00:26:53;;;;;;;6.40;4.57;;;21.00;99.90;;;21.54;100.00;101108.34;5204444;28;20095;-56
2023/09/10 00:29:25;;;;;;;8.52;4.72;;;21.00;99.90;;;21.51;100.00;101103.91;5202286;28;20512;-54
2023/09/10 00:31:58;;;;;;;7.88;5.00;;;21.00;99.90;;;21.49;100.00;101110.13;5200002;28;20049;-54
2023/09/10 00:34:32;;;;;;;6.25;4.38;;;20.90;99.90;;;21.47;100.00;101111.94;5219210;28;20518;-54
2023/09/10 00:37:05;;;;;;;7.57;4.47;;;20.90;99.90;;;21.44;100.00;101106.63;5200344;28;20137;-54
2023/09/10 00:39:39;;;;;;;7.15;4.93;;;20.90;99.90;;;21.40;100.00;101103.13;5220749;28;20046;-54
2023/09/10 00:42:12;;;;;;;7.10;4.68;;;20.90;99.90;;;21.36;100.00;101094.28;5203390;28;20049;-55
2023/09/10 00:44:44;;;;;;;7.18;4.60;;;20.80;99.90;;;21.35;100.00;101103.13;5200493;28;20077;-56
2023/09/10 00:47:17;;;;;;;7.47;4.95;;;20.80;99.90;;;21.36;100.00;101098.69;5206261;28;20073;-55
2023/09/10 00:49:50;;;;;;;7.10;4.55;;;20.80;99.90;;;21.36;100.00;101099.59;5203863;28;20053;-54
2023/09/10 00:52:23;;;;;;;8.30;5.45;;;20.80;99.90;;;21.37;100.00;101098.69;5201330;28;20561;-54
2023/09/10 00:54:57;;;;;;;8.13;5.47;;;20.90;99.90;;;21.40;100.00;101096.03;5199964;28;20048;-54
2023/09/10 00:57:29;;;;;;;8.07;5.63;;;20.80;99.90;;;21.41;100.00;101096.91;5209021;28;20046;-54
2023/09/10 01:00:05;;;;;;;10.63;6.00;;;20.90;99.90;;;21.43;100.00;101094.25;5203588;28;20049;-54
2023/09/10 01:02:39;;;;;;;9.35;5.90;;;20.90;99.90;;;21.44;100.00;101101.31;5202733;28;20063;-55
2023/09/10 01:05:12;;;;;;;10.13;6.80;;;20.90;99.90;;;21.43;100.00;101095.13;5203692;28;20100;-56
2023/09/10 01:07:45;;;;;;;8.50;6.38;;;20.90;99.90;;;21.43;100.00;101100.44;5195252;28;20037;-55
2023/09/10 01:10:19;;;;;;;10.25;5.88;;;20.90;99.90;;;21.43;100.00;101099.56;5202746;28;20049;-54
2023/09/10 01:13:02;;;;;;;8.93;5.78;;;20.90;99.90;;;21.42;100.00;101103.97;5203384;28;20498;-55
2023/09/10 01:15:41;;;;;;;8.35;5.80;;;20.90;99.90;;;21.39;100.00;101104.88;5202596;28;20137;-54
2023/09/10 01:18:24;;;;;;;8.38;5.82;;;20.90;99.90;;;21.36;100.00;101096.94;5199712;28;20052;-53
2023/09/10 01:21:22;;;;;;;10.95;5.97;;;20.80;99.90;;;21.32;100.00;101097.84;5203378;28;20045;-55
2023/09/10 01:24:09;;;;;;;9.32;5.65;;;20.80;99.90;;;21.30;100.00;101104.91;5199248;28;20038;-55
2023/09/10 01:26:55;;;;;;;8.90;5.78;;;20.80;99.90;;;21.29;100.00;101087.25;5219727;28;20049;-59
2023/09/10 01:29:27;;;;;;;8.15;5.57;;;20.80;99.90;;;21.28;100.00;101100.47;5200801;28;20038;-53
2023/09/10 01:32:06;;;;;;;8.75;5.38;;;20.80;99.90;;;21.24;100.00;101099.59;5203013;28;20140;-57
2023/09/10 01:34:46;;;;;;;8.07;5.72;;;20.70;99.90;;;21.20;100.00;101097.00;5202909;28;20042;-55
2023/09/10 01:37:36;;;;;;;8.00;5.43;;;20.70;99.90;;;21.12;100.00;101099.66;5202613;28;20143;-56
2023/09/10 01:40:15;;;;;;;6.57;4.70;;;20.60;99.90;;;21.05;100.00;101098.78;5203104;28;20514;-57
2023/09/10 01:42:50;;;;;;;8.75;5.47;;;20.60;99.90;;;21.00;100.00;101089.13;5194852;28;20124;-55
2023/09/10 01:45:24;;;;;;;9.63;5.93;;;20.50;99.90;;;20.96;100.00;101100.59;5199480;28;20450;-58
2023/09/10 01:47:56;;;;;;;;;;;20.40;99.90;;;20.94;100.00;101105.03;5203019;28;20064;-56
2023/09/10 01:50:30;;;;;;;8.13;5.15;;;20.40;99.90;;;20.95;100.00;101097.06;5200458;28;19929;-55
2023/09/10 01:53:02;;;;;;;8.77;6.00;;;20.40;99.90;;;20.98;100.00;101096.16;5198658;28;20037;-54
2023/09/10 01:55:35;;;;;;;9.05;6.18;;;20.40;99.90;;;20.99;100.00;101090.84;5218034;28;20373;-53
2023/09/10 01:58:08;;;;;;;8.65;5.63;;;20.50;99.90;;;20.99;100.00;101087.31;5198671;28;20050;-56
2023/09/10 02:00:41;;;;;;;10.13;6.03;;;20.50;99.90;;;20.97;100.00;101094.41;5217917;28;20042;-54
2023/09/10 02:03:13;;;;;;;8.27;5.53;;;20.50;99.90;;;20.96;100.00;101097.94;5202384;28;20319;-57
2023/09/10 02:05:46;;;;;;;9.90;5.88;;;20.50;99.90;;;20.93;100.00;101097.94;5202829;28;20053;-55
2023/09/10 02:08:18;;;;;;;8.05;5.40;;;20.40;99.90;;;20.90;100.00;101092.66;5194359;28;20045;-54
2023/09/10 02:10:50;;;;;;;7.78;5.47;;;20.40;99.90;;;20.86;100.00;101102.38;5197596;28;20041;-54
2023/09/10 02:13:24;;;;;;;8.20;5.60;;;20.40;99.90;;;20.82;100.00;101109.47;5215043;28;20044;-55
2023/09/10 02:15:57;;;;;;;8.55;5.43;;;20.40;99.90;;;20.76;100.00;101101.53;5201946;28;20037;-55
2023/09/10 02:18:30;;;;;;;8.25;5.13;;;20.30;99.90;;;20.71;100.00;101108.59;5199725;28;20053;-54
2023/09/10 02:21:10;;;;;;;7.07;5.03;;;20.20;99.90;;;20.65;100.00;101105.97;5197607;28;20499;-54
2023/09/10 02:23:43;;;;;;;7.38;4.90;;;20.20;99.90;;;20.62;100.00;101113.91;5216795;28;20029;-56
2023/09/10 02:26:16;;;;;;;7.10;4.85;;;20.10;99.90;;;20.59;100.00;101113.91;5202500;28;20049;-54
2023/09/10 02:28:50;;;;;;;8.55;4.97;;;20.10;99.90;;;20.55;100.00;101109.53;5203439;28;20041;-54
2023/09/10 02:31:25;;;;;;;7.32;4.78;;;20.10;99.90;;;20.51;100.00;101116.56;5197926;28;20042;-55
2023/09/10 02:34:00;;;;;;;6.35;4.93;;;20.00;99.90;;;20.49;100.00;101114.81;5201867;28;20040;-54
2023/09/10 02:36:33;;;;;;;8.00;4.82;;;20.00;99.90;;;20.47;100.00;101116.56;5201802;28;20037;-54
2023/09/10 02:39:08;;;;;;;6.78;4.72;;;20.00;99.90;;;20.46;100.00;101112.16;5202256;28;20041;-53
2023/09/10 02:41:41;;;;;;;6.95;4.60;;;19.90;99.90;;;20.47;100.00;101108.63;5201315;28;20414;-54
2023/09/10 02:44:14;;;;;;;7.40;4.97;;;19.90;99.90;;;20.47;100.00;101109.50;5201636;28;20402;-54
2023/09/10 02:46:47;;;;;;;8.98;5.43;;;20.00;99.90;;;20.47;100.00;101114.78;5202137;28;20522;-54
2023/09/10 02:49:19;;;;;;;7.32;5.25;;;20.00;99.90;;;20.48;100.00;101115.72;5197703;28;20041;-54
2023/09/10 02:51:52;;;;;;;9.00;5.50;;;20.00;99.90;;;20.47;100.00;101113.91;5193130;28;20064;-55
2023/09/10 02:54:24;;;;;;;7.75;5.20;;;20.00;99.90;;;20.45;100.00;101115.69;5201238;28;20788;-55
2023/09/10 02:56:57;;;;;;;7.05;4.93;;;20.00;99.90;;;20.40;100.00;101114.78;5201760;28;20068;-55
2023/09/10 02:59:30;;;;;;;7.45;5.28;;;19.90;99.90;;;20.38;100.00;101119.19;5201329;28;20115;-54
2023/09/10 03:02:03;;;;;;;8.27;5.65;;;19.90;99.90;;;20.35;100.00;101129.81;5201275;28;20049;-55
2023/09/10 03:04:36;;;;;;;6.63;5.38;;;19.90;99.90;;;20.30;100.00;101133.31;5200742;28;20038;-54
2023/09/10 03:07:08;;;;;;;7.68;5.18;;;19.90;99.90;;;20.25;100.00;101123.59;5202199;28;20085;-54
2023/09/10 03:09:41;;;;;;;7.63;5.07;;;19.80;99.90;;;20.22;100.00;101131.56;5200511;28;20064;-55
2023/09/10 03:12:27;;;;;;;7.90;5.38;;;19.80;99.90;;;20.16;100.00;101128.91;5197315;28;20084;-55
2023/09/10 03:15:03;;;;;;;7.50;5.00;;;19.70;99.90;;;20.14;100.00;101130.66;5194733;28;20038;-55
2023/09/10 03:17:36;;;;;;;5.70;4.32;;;19.70;99.90;;;20.11;100.00;101133.31;5199617;28;20876;-54
2023/09/10 03:20:10;;;;;;;6.35;4.90;;;19.60;99.90;;;20.08;100.00;101133.28;5197250;28;20411;-53
2023/09/10 03:22:42;;;;;;;7.50;5.13;;;19.60;99.90;;;20.08;100.00;101135.94;5215846;28;20053;-54
2023/09/10 03:25:18;;;;;;;7.70;5.38;;;19.60;99.90;;;20.09;100.00;101130.66;5197493;28;20034;-54
2023/09/10 03:27:50;;;;;;;6.75;4.90;;;19.60;99.90;;;20.11;100.00;101128.91;5217567;28;20048;-54
2023/09/10 03:30:24;;;;;;;8.55;5.43;;;19.60;99.90;;;20.12;100.00;101130.66;5201003;28;20040;-55
2023/09/10 03:32:57;;;;;;;7.30;4.97;;;19.60;99.90;;;20.14;100.00;101135.94;5192339;28;20132;-55
2023/09/10 03:35:30;;;;;;;7.80;5.22;;;19.70;99.90;;;20.13;100.00;101135.06;5215306;28;20038;-55
2023/09/10 03:38:03;;;;;;;7.15;4.63;;;19.60;99.90;;;20.11;100.00;101136.84;5201189;28;20466;-55
2023/09/10 03:40:35;;;;;;;7.53;5.28;;;19.60;99.90;;;20.09;100.00;101122.72;5219325;28;20399;-56
2023/09/10 03:43:07;;;;;;;7.38;5.05;;;19.60;99.90;;;20.09;100.00;101124.50;5204684;28;20206;-54
2023/09/10 03:45:41;;;;;;;7.53;5.32;;;19.60;99.90;;;20.10;100.00;101132.44;5203067;28;20038;-55
2023/09/10 03:48:14;;;;;;;7.88;5.22;;;19.60;99.90;;;20.09;100.00;101124.50;5201243;28;20057;-53
2023/09/10 03:50:47;;;;;;;7.63;5.47;;;19.60;99.90;;;20.07;100.00;101129.75;5220487;28;20458;-54
2023/09/10 03:53:19;;;;;;;7.95;5.68;;;19.60;99.90;;;20.03;100.00;101128.00;5204737;28;20140;-54
2023/09/10 03:55:51;;;;;;;9.43;5.72;;;19.60;99.90;;;20.01;100.00;101129.75;5204240;28;20042;-55
2023/09/10 03:58:24;;;;;;;7.18;5.10;;;19.50;99.90;;;19.99;100.00;101127.09;5201052;28;20096;-53
2023/09/10 04:00:59;;;;;;;7.30;4.80;;;19.50;99.90;;;19.98;100.00;101124.47;5204915;28;20037;-54
2023/09/10 04:03:31;;;;;;;7.53;5.53;;;19.50;99.90;;;19.98;100.00;101135.06;5201078;28;20046;-54
2023/09/10 04:06:04;;;;;;;7.18;5.45;;;19.50;99.90;;;19.96;100.00;101136.81;5205111;28;20045;-54
2023/09/10 04:08:36;;;;;;;7.97;5.15;;;19.50;99.90;;;19.93;100.00;101131.50;5204430;28;20127;-53
2023/09/10 04:11:09;;;;;;;7.70;5.15;;;19.50;99.90;;;19.92;100.00;101127.09;5205801;28;20083;-55
2023/09/10 04:13:41;;;;;;;7.53;4.63;;;19.50;99.90;;;19.88;100.00;101130.59;5203510;28;20099;-53
2023/09/10 04:16:15;;;;;;;7.90;5.60;;;19.40;99.90;;;19.86;100.00;101132.38;5204734;28;20045;-53
2023/09/10 04:18:47;;;;;;;7.28;5.07;;;19.40;99.90;;;19.84;100.00;101127.09;5203446;28;20053;-53
2023/09/10 04:21:20;;;;;;;7.03;5.20;;;19.30;99.90;;;19.84;100.00;101128.84;5200550;28;20046;-54
2023/09/10 04:23:52;;;;;;;8.57;4.55;;;19.40;99.90;;;19.82;100.00;101135.88;5203032;28;20384;-55
2023/09/10 04:26:25;;;;;;;11.18;5.50;;;19.40;99.90;;;19.79;100.00;101140.31;5204524;28;20037;-55
2023/09/10 04:28:58;;;;;;;12.40;6.20;;;19.40;99.90;;;19.78;100.00;101137.66;5204494;28;20048;-54
2023/09/10 04:31:40;;;;;;;10.60;6.28;;;19.30;99.90;;;19.78;100.00;101138.53;5200042;28;20064;-54
2023/09/10 04:34:13;;;;;;;10.38;6.57;;;19.40;99.90;;;19.80;100.00;101135.88;5200030;28;20050;-54
2023/09/10 04:36:46;;;;;;;9.32;5.95;;;19.30;99.90;;;19.82;100.00;101135.88;5217255;28;20042;-54
2023/09/10 04:39:19;;;;;;;8.13;5.70;;;19.40;99.90;;;19.83;100.00;101127.97;5204005;28;20140;-54
2023/09/10 04:41:51;;;;;;;8.32;5.53;;;19.40;99.90;;;19.84;100.00;101136.78;5202510;28;20069;-54
2023/09/10 04:44:25;;;;;;;8.20;5.28;;;19.40;99.90;;;19.86;100.00;101124.44;5203294;28;20068;-55
2023/09/10 04:46:59;;;;;;;9.75;6.13;;;19.40;99.90;;;19.88;100.00;101138.53;5203527;28;20041;-55
2023/09/10 04:49:31;;;;;;;8.90;5.90;;;19.40;99.90;;;19.87;100.00;101129.72;5203399;28;20037;-53
2023/09/10 04:52:04;;;;;;;8.05;5.38;;;19.40;99.90;;;19.88;100.00;101127.97;5203526;28;20045;-55
2023/09/10 04:54:37;;;;;;;9.55;6.32;;;19.40;99.90;;;19.88;100.00;101128.84;5203359;28;20052;-54
2023/09/10 04:57:10;;;;;;;9.23;5.35;;;19.40;99.90;;;19.88;100.00;101133.25;5199571;28;20060;-55
2023/09/10 04:59:43;;;;;;;8.40;5.50;;;19.50;99.90;;;19.88;100.00;101133.25;5217589;28;20502;-54
2023/09/10 05:02:17;;;;;;;8.75;5.80;;;19.40;99.90;;;19.89;100.00;101141.22;5203036;28;20521;-55
2023/09/10 05:04:49;;;;;;;8.05;5.60;;;19.40;99.90;;;19.88;100.00;101150.00;5202132;28;20075;-53
2023/09/10 05:07:22;;;;;;;9.30;5.90;;;19.50;99.90;;;19.89;100.00;101141.22;5200256;28;20042;-53
2023/09/10 05:09:56;;;;;;;8.27;5.68;;;19.40;99.90;;;19.89;100.00;101145.63;5218885;28;20132;-54
2023/09/10 05:12:28;;;;;;;9.30;5.75;;;19.40;99.90;;;19.89;100.00;101149.16;5203005;28;20045;-54
2023/09/10 05:15:00;;;;;;;10.38;6.32;;;19.40;99.90;;;19.90;100.00;101152.69;5203203;28;20136;-54
2023/09/10 05:17:38;;;;;;;9.57;5.88;;;19.50;99.90;;;19.92;100.00;101154.44;5200016;28;20069;-54
2023/09/10 05:20:12;;;;;;;7.80;5.68;;;19.50;99.90;;;19.94;100.00;101149.16;5203741;28;20099;-54
2023/09/10 05:22:44;;;;;;;8.75;5.15;;;19.50;99.90;;;19.97;100.00;101149.16;5202993;28;20048;-54
2023/09/10 05:25:17;;;;;;;8.07;5.60;;;19.50;99.90;;;19.99;100.00;101157.97;5189227;28;20049;-56
2023/09/10 05:27:49;;;;;;;10.35;6.03;;;19.50;99.90;;;20.00;100.00;101146.50;5201967;28;20049;-55
2023/09/10 05:30:22;;;;;;;9.15;5.75;;;19.60;99.90;;;20.03;100.00;101154.47;5203513;28;20123;-54
2023/09/10 05:32:57;;;;;;;9.20;5.38;;;19.60;99.90;;;20.03;100.00;101150.06;5201882;28;20495;-53
2023/09/10 05:35:29;;;;;;;;;;;19.60;99.90;;;20.05;100.00;101158.88;5199910;28;20046;-53
2023/09/10 05:38:01;;;;;;;9.30;5.50;;;19.60;99.90;;;20.08;100.00;101155.34;5203155;28;19921;-55
2023/09/10 05:40:36;;;;;;;8.32;5.70;;;19.60;99.90;;;20.10;100.00;101156.25;5203129;28;20049;-54
2023/09/10 05:43:09;;;;;;;9.70;5.55;;;19.70;99.90;;;20.13;100.00;101155.34;5202434;28;20045;-54
2023/09/10 05:45:41;;;;;;;10.50;5.90;;;19.70;99.90;;;20.17;100.00;101159.78;5202970;28;20037;-53
2023/09/10 05:48:15;;;;;;;11.40;6.18;;;19.70;99.90;;;20.20;100.00;101160.66;5199314;28;20042;-53
2023/09/10 05:50:48;;;;;;;11.20;6.15;;;19.80;99.90;;;20.26;100.00;101160.66;5200800;28;20063;-53
2023/09/10 05:53:20;;;;;;;9.52;5.60;;;19.80;99.90;;;20.30;100.00;101158.91;5202535;28;20045;-54
2023/09/10 05:55:53;;;;;;;8.73;5.65;;;19.90;99.90;;;20.35;100.00;101161.56;5200668;28;20514;-54
2023/09/10 05:58:25;;;;;;;11.85;6.50;;;19.90;99.90;;;20.39;100.00;101158.03;5198836;28;20042;-54
2023/09/10 06:00:58;;;;;;;9.20;5.95;;;20.00;99.90;;;20.45;100.00;101158.06;5218451;28;20065;-54
2023/09/10 06:03:32;;;;;;;11.32;6.53;;;20.00;99.90;;;20.50;100.00;101154.53;5202534;28;20041;-53
2023/09/10 06:06:05;;;;;;;11.35;6.57;;;20.10;99.90;;;20.57;100.00;101160.72;5198711;28;20414;-53
2023/09/10 06:08:37;;;;;;;8.70;5.68;;;20.10;99.90;;;20.64;100.00;101159.81;5207513;28;20046;-54
2023/09/10 06:11:09;;;;;;;9.07;5.55;;;20.20;99.90;;;20.72;100.00;101162.47;5198683;28;20038;-54
2023/09/10 06:13:42;;;;;;;10.75;6.15;;;20.30;99.90;;;20.80;100.00;101166.88;5212761;28;20145;-54
2023/09/10 06:16:15;;;;;;;10.77;5.90;;;20.30;99.90;;;21.33;100.00;101173.84;5202311;28;20048;-54
2023/09/10 06:18:49;;;;;;;10.13;5.72;;;20.70;99.90;;;22.65;100.00;101173.06;5202394;28;20399;-53
2023/09/10 06:21:21;;;;;;;10.10;6.18;;;21.40;99.90;;;24.14;100.00;101181.13;5202411;28;20056;-55
2023/09/10 06:23:54;;;;;;;9.27;6.20;;;22.50;99.90;;;25.45;100.00;101193.97;5201797;28;20053;-54
2023/09/10 06:26:26;;;;;;;9.65;5.35;;;23.70;99.90;;;26.69;100.00;101192.06;5198420;28;20049;-54
2023/09/10 06:28:59;;;;;;;10.48;6.18;;;24.80;99.90;;;27.74;98.50;101204.34;5217825;28;20053;-56
2023/09/10 06:31:31;;;;;;;8.48;5.50;;;25.90;99.90;;;28.54;93.71;101204.56;5202075;28;20037;-55
2023/09/10 06:34:05;;;;;;;10.45;5.65;;;26.70;99.90;;;29.18;89.64;101199.69;5202170;28;20132;-55
2023/09/10 06:36:38;;;;;;;;;;;27.30;99.90;;;29.60;87.61;101201.72;5202643;28;20037;-54
2023/09/10 06:39:10;;;;;;;10.75;5.18;;;27.90;99.40;;;30.05;84.77;101199.06;5202148;28;20294;-54
2023/09/10 06:41:46;;;;;;;11.52;5.25;;;28.30;98.10;;;30.42;83.67;101203.88;5198409;28;20046;-54
2023/09/10 06:44:19;;;;;;;8.27;4.90;;;28.70;97.20;;;30.81;81.91;101195.09;5196641;28;20465;-56
2023/09/10 06:46:51;;;;;;;10.43;5.38;;;29.10;96.20;;;31.18;80.83;101206.94;5199650;28;20045;-55
2023/09/10 06:49:25;;;;;;;13.30;5.70;;;29.50;95.50;;;31.47;79.78;101209.22;5198014;28;20517;-55
2023/09/10 06:51:57;;;;;;;8.55;5.32;;;29.90;95.10;;;31.75;78.43;101203.41;5215075;28;20041;-55
2023/09/10 06:54:30;;;;;;;10.52;5.20;;;30.10;93.90;;;32.01;77.21;101213.00;5202008;28;20084;-55
2023/09/10 06:57:02;;;;;;;9.07;5.35;;;30.40;93.10;;;32.19;76.40;101208.53;5201014;28;20034;-55
2023/09/10 06:59:35;;;;;;;12.30;5.43;;;30.60;92.40;;;32.36;76.10;101207.75;5197962;28;20450;-55
2023/09/10 07:02:07;;;;;;;9.10;4.60;;;30.80;91.90;;;32.47;75.40;101209.91;5217253;28;20041;-55
2023/09/10 07:04:47;;;;;;;10.80;4.82;;;30.90;91.30;;;32.56;74.90;101209.44;5198141;28;20045;-55
2023/09/10 07:07:19;;;;;;;11.25;5.55;;;31.00;90.80;;;32.54;74.97;101203.25;5202005;28;20045;-55
2023/09/10 07:09:52;;;;;;;11.20;5.10;;;31.10;90.50;;;32.50;75.12;101204.38;5199552;28;20125;-55
2023/09/10 07:12:24;;;;;;;9.82;4.63;;;31.20;90.30;;;32.55;75.37;101205.88;5201111;28;20412;-54
2023/09/10 07:14:57;;;;;;;9.70;4.93;;;31.30;90.10;;;32.78;74.84;101198.44;5199930;28;20052;-54
2023/09/10 07:17:29;;;;;;;9.98;4.75;;;31.40;89.70;;;32.81;74.42;101199.16;5201818;28;20045;-55
2023/09/10 07:20:03;;;;;;;12.13;4.72;;;31.50;88.90;;;32.93;74.03;101203.09;5200286;28;20045;-55
2023/09/10 07:22:35;;;;;;;9.70;4.90;;;31.60;88.30;;;32.96;73.41;101205.63;5189060;28;20593;-55
2023/09/10 07:25:09;;;;;;;9.45;4.57;;;31.60;87.40;;;32.90;72.89;101208.63;5217417;28;20499;-54
2023/09/10 07:27:45;;;;;;;;;;;31.60;86.40;;;32.84;72.99;101200.81;5201904;28;20041;-55
2023/09/10 07:30:17;;;;;;;9.93;4.90;;;31.60;86.00;;;32.87;72.77;101211.50;5197693;28;19921;-56
2023/09/10 07:32:49;;;;;;;9.02;4.45;;;31.60;85.60;;;32.97;72.73;101210.06;5214549;28;20084;-56
2023/09/10 07:35:23;;;;;;;9.10;4.78;;;31.70;85.50;;;33.15;72.55;101213.63;5202741;28;20064;-55
2023/09/10 07:37:55;;;;;;;;;;;31.80;85.30;;;33.03;71.99;101215.13;5201802;28;20084;-55
2023/09/10 07:40:27;;;;;;;8.80;4.50;;;31.80;84.20;;;33.07;71.39;101216.72;5197418;28;20012;-55
2023/09/10 07:43:02;;;;;;;11.27;5.10;;;31.80;83.70;;;33.11;71.23;101218.28;5215437;28;20046;-55
2023/09/10 07:45:38;;;;;;;10.23;4.82;;;31.80;83.30;;;33.20;71.28;101222.38;5197497;28;20050;-56
2023/09/10 07:48:11;;;;;;;9.02;4.38;;;31.80;83.30;;;33.31;71.11;101219.06;5217426;28;20076;-56
2023/09/10 07:50:53;;;;;;;;;;;31.80;83.30;;;33.52;71.23;101222.47;5197728;28;20506;-56
2023/09/10 07:53:26;;;;;;;9.52;5.15;;;31.90;83.50;;;33.78;70.41;101229.16;5200886;28;19921;-56
2023/09/10 07:55:59;;;;;;;8.43;4.43;;;32.00;82.90;;;34.00;69.59;101229.75;5201128;28;20764;-56
2023/09/10 07:58:31;;;;;;;9.73;4.82;;;32.20;82.40;;;34.24;69.24;101235.59;5201483;28;20042;-56
2023/09/10 08:01:03;;;;;;;8.35;4.32;;;32.30;82.10;;;34.50;68.08;101231.44;5201099;28;20053;-55
2023/09/10 08:03:37;;;;;;;9.52;4.78;;;32.50;81.20;;;34.83;66.45;101230.38;5200619;28;20048;-55
2023/09/10 08:06:11;;;;;;;10.00;4.32;;;32.70;80.30;;;35.20;66.13;101234.47;5201276;28;20042;-56
2023/09/10 08:08:43;;;;;;;6.78;4.03;;;32.90;79.60;;;35.79;64.76;101241.56;5196798;28;20056;-56
2023/09/10 08:11:16;;;;;;;8.20;4.07;;;33.30;78.90;;;36.44;63.67;101238.31;5205964;28;20053;-55
2023/09/10 08:13:52;;;;;;;8.77;4.60;;;33.80;78.30;;;36.91;62.11;101237.84;5197130;28;20044;-55
2023/09/10 08:16:24;;;;;;;8.90;4.32;;;34.20;76.80;;;37.31;61.33;101243.22;5197456;28;20052;-56
2023/09/10 08:18:57;;;;;;;8.38;4.20;;;34.50;76.00;;;37.51;60.07;101240.97;5215616;28;20049;-56
2023/09/10 08:21:31;;;;;;;7.70;4.47;;;34.80;74.70;;;37.62;59.63;101243.78;5204595;28;20477;-56
2023/09/10 08:24:07;;;;;;;8.25;4.22;;;34.90;74.10;;;37.79;58.67;101243.44;5205529;28;20453;-55
2023/09/10 08:26:39;;;;;;;8.30;4.22;;;35.10;73.70;;;37.95;58.45;101244.09;5200856;28;20052;-55
2023/09/10 08:29:11;;;;;;;10.02;4.75;;;35.20;72.70;;;38.04;58.19;101241.69;5220060;28;20498;-56
2023/09/10 08:31:44;;;;;;;9.85;4.57;;;35.30;72.30;;;38.07;58.29;101233.28;5204308;28;20064;-55
2023/09/10 08:34:16;;;;;;;7.82;4.22;;;35.30;72.20;;;38.18;57.56;101226.06;5204353;28;20038;-56
2023/09/10 08:36:50;;;;;;;7.35;4.30;;;35.40;71.60;;;38.32;57.83;101230.50;5200882;28;20049;-56
2023/09/10 08:39:23;;;;;;;10.32;4.38;;;35.50;71.60;;;38.41;57.87;101226.19;5204800;28;20529;-55
2023/09/10 08:42:07;;;;;;;10.25;4.45;;;35.60;71.70;;;38.39;57.73;101220.88;5204634;28;20052;-55
2023/09/10 08:44:43;;;;;;;7.93;4.25;;;35.60;71.50;;;38.32;57.42;101224.19;5201686;28;20061;-55
2023/09/10 08:47:18;;;;;;;7.82;4.18;;;35.60;71.50;;;38.24;57.99;101224.72;5221353;28;20414;-55
2023/09/10 08:50:03;;;;;;;7.30;4.20;;;35.60;71.50;;;38.20;57.68;101228.66;5193107;28;20050;-55
2023/09/10 08:52:39;;;;;;;6.53;4.25;;;35.50;70.90;;;38.21;58.46;101223.13;5200092;28;20169;-56
2023/09/10 08:55:13;;;;;;;8.55;4.40;;;35.50;71.50;;;38.12;58.07;101225.63;5220291;28;20045;-56
2023/09/10 08:57:50;;;;;;;8.80;4.40;;;35.50;71.00;;;37.84;58.19;101219.53;5200041;28;20080;-54
2023/09/10 09:00:23;;;;;;;6.70;3.83;;;35.50;70.70;;;37.56;57.57;101219.72;5208495;28;20057;-55
2023/09/10 09:02:56;;;;;;;7.85;4.05;;;35.30;69.80;;;37.21;58.06;101214.94;5189069;28;20042;-56
2023/09/10 09:05:31;;;;;;;7.20;4.05;;;35.20;69.90;;;36.92;59.44;101215.13;5200159;28;20053;-56
2023/09/10 09:08:16;;;;;;;5.97;3.92;;;35.10;70.90;;;36.49;60.18;101205.44;5216687;28;20452;-53
2023/09/10 09:10:49;;;;;;;9.70;4.15;;;34.80;71.00;;;36.02;60.92;101213.00;5191916;28;20098;-55
2023/09/10 09:13:23;;;;;;;7.10;3.58;;;34.60;71.10;;;35.44;61.60;101213.13;5195659;28;20514;-55
2023/09/10 09:15:56;;;;;;;7.35;4.20;;;34.20;71.40;;;34.96;63.28;101204.34;5204094;28;20067;-53
2023/09/10 09:18:30;;;;;;;6.65;4.00;;;33.80;72.20;;;34.61;65.13;101209.13;5200243;28;20050;-55
2023/09/10 09:21:08;;;;;;;8.82;4.40;;;33.50;73.80;;;34.32;66.00;101197.28;5217833;28;20422;-54
2023/09/10 09:23:47;;;;;;;8.43;4.03;;;33.20;74.50;;;34.14;66.69;101196.50;5203107;28;20414;-55
2023/09/10 09:26:20;;;;;;;7.38;4.00;;;33.10;75.10;;;33.98;66.88;101189.28;5203482;28;20041;-55
2023/09/10 09:28:53;;;;;;;6.32;3.92;;;32.90;75.40;;;33.93;68.12;101190.50;5202710;28;20496;-54
2023/09/10 09:31:26;;;;;;;8.73;4.13;;;32.80;76.30;;;33.88;67.91;101193.41;5198973;28;20091;-54
2023/09/10 09:33:59;;;;;;;7.20;4.22;;;32.80;76.20;;;33.81;67.73;101192.00;5216678;28;20049;-54
2023/09/10 09:36:36;;;;;;;7.45;4.10;;;32.70;76.10;;;33.73;67.29;101184.34;5203306;28;20041;-54
2023/09/10 09:39:11;;;;;;;7.40;3.53;;;32.60;75.80;;;33.74;67.00;101186.06;5201511;28;20404;-54
2023/09/10 09:41:47;;;;;;;8.82;4.53;;;32.60;75.70;;;33.73;67.91;101181.63;5203002;28;20064;-55
2023/09/10 09:44:20;;;;;;;7.65;4.53;;;32.60;76.40;;;33.77;68.18;101176.03;5203247;28;20037;-54
2023/09/10 09:46:58;;;;;;;6.95;4.35;;;32.60;76.70;;;33.79;68.45;101179.56;5202840;28;20053;-55
2023/09/10 09:49:30;;;;;;;6.82;3.90;;;32.60;77.10;;;33.83;67.94;101179.28;5203048;28;20045;-56
2023/09/10 09:52:06;;;;;;;8.70;4.13;;;32.70;76.80;;;33.80;66.74;101174.06;5191712;28;20150;-55
2023/09/10 09:54:40;;;;;;;7.55;4.00;;;32.70;75.70;;;33.73;66.06;101173.53;5199131;28;20096;-54
2023/09/10 09:57:13;;;;;;;10.05;4.30;;;32.60;75.10;;;33.74;66.34;101175.25;5217924;28;20140;-54
2023/09/10 09:59:45;;;;;;;7.35;4.05;;;32.60;75.10;;;33.78;65.79;101164.25;5203317;28;20049;-54
2023/09/10 10:02:18;;;;;;;6.53;4.25;;;32.60;75.30;;;33.80;65.36;101165.94;5201987;28;20045;-54
2023/09/10 10:04:51;;;;;;;8.85;4.05;;;32.60;74.50;;;33.85;65.59;101161.16;5198975;28;20046;-55
2023/09/10 10:07:26;;;;;;;7.15;4.00;;;32.70;75.20;;;33.96;66.04;101163.25;5203882;28;20403;-55
2023/09/10 10:10:07;;;;;;;7.25;4.03;;;32.80;75.00;;;34.05;65.88;101151.94;5199391;28;20108;-54
2023/09/10 10:12:40;;;;;;;6.57;3.90;;;32.80;75.10;;;34.15;64.36;101158.53;5202229;28;20049;-54
2023/09/10 10:15:13;;;;;;;8.02;4.35;;;32.90;74.10;;;34.15;63.40;101157.66;5202263;28;20045;-54
2023/09/10 10:17:47;;;;;;;8.45;4.38;;;32.90;72.90;;;34.22;63.18;101151.81;5198374;28;20092;-54
2023/09/10 10:20:22;;;;;;;6.90;4.03;;;33.00;73.00;;;34.27;64.04;101152.41;5209695;28;20076;-56
2023/09/10 10:22:55;;;;;;;7.97;4.20;;;33.00;73.40;;;34.21;63.18;101144.66;5197975;28;20057;-53
2023/09/10 10:25:29;;;;;;;10.00;3.83;;;33.00;72.60;;;34.22;63.69;101140.97;5202365;28;20084;-55
2023/09/10 10:28:09;;;;;;;7.93;4.10;;;33.00;72.80;;;34.22;63.41;101143.69;5199151;28;20045;-54
2023/09/10 10:30:53;;;;;;;8.68;4.10;;;33.00;72.70;;;34.16;64.17;101144.03;5197796;28;20160;-55
2023/09/10 10:33:27;;;;;;;6.80;3.90;;;33.00;73.10;;;34.15;65.07;101130.63;5210186;28;20037;-54
2023/09/10 10:36:11;;;;;;;6.97;3.92;;;33.00;73.90;;;34.22;64.45;101130.16;5201919;28;20064;-54